Terminal Aerodrome Forecast
Issued by NWS Sioux Falls, SD

Home | Current Version | Previous Version | Graphics & Text | Print | Product List | Glossary Off
Versions: 1 2 3 4 5 6 7 8 9 10 11 12 13 14 15

000
FTUS43 KFSD 312300
TAFFSD
TAF
KFSD 312320Z 0100/0124 VRB03KT P6SM SCT060 BKN110
     FM010100 VRB03KT P6SM SKC
     FM012000 VRB03KT P6SM BKN140=

USA.gov is the U.S. government's official web portal to all federal, state and local government web resources and services.